createdAt,value
2022-10-31T00:00:56.157Z,100350.97
2022-10-31T00:03:23.794Z,100344.19
2022-10-31T00:05:51.387Z,100343.34
2022-10-31T00:08:18.995Z,100346.88
2022-10-31T00:10:46.633Z,100345.72
2022-10-31T00:13:15.191Z,100346.13
2022-10-31T00:15:42.842Z,100348.06
2022-10-31T00:18:10.407Z,100345.41
2022-10-31T00:20:38.002Z,100350.06
2022-10-31T00:23:05.584Z,100355.41
2022-10-31T00:25:33.174Z,100340.31
2022-10-31T00:28:01.078Z,100349.19
2022-10-31T00:30:28.998Z,100351.03
2022-10-31T00:32:57.279Z,100357.53
2022-10-31T00:35:25.211Z,100349.59
2022-10-31T00:37:53.097Z,100347.78
2022-10-31T00:40:20.659Z,100353.28
2022-10-31T00:42:48.222Z,100349.78
2022-10-31T00:45:15.822Z,100353.28
2022-10-31T00:47:43.463Z,100356.81
2022-10-31T00:50:11.678Z,100354.97
2022-10-31T00:52:39.320Z,100355.84
2022-10-31T00:55:07.216Z,100352.16
2022-10-31T00:57:34.852Z,100350.91
2022-10-31T01:00:02.463Z,100355.00
2022-10-31T01:02:30.686Z,100350.50
2022-10-31T01:04:58.343Z,100352.44
2022-10-31T01:07:25.889Z,100352.03
2022-10-31T01:09:53.432Z,100353.56
2022-10-31T01:12:21.074Z,100350.72
2022-10-31T01:14:48.989Z,100353.94
2022-10-31T01:17:16.983Z,100355.06
2022-10-31T01:19:44.635Z,100364.22
2022-10-31T01:22:12.284Z,100353.66
2022-10-31T01:24:39.847Z,100350.09
2022-10-31T01:27:08.041Z,100353.66
2022-10-31T01:29:35.574Z,100353.50
2022-10-31T01:32:03.159Z,100356.03
2022-10-31T01:34:30.784Z,100346.03
2022-10-31T01:36:58.341Z,100357.59
2022-10-31T01:39:26.489Z,100353.06
2022-10-31T01:41:54.086Z,100350.41
2022-10-31T01:44:21.712Z,100340.66
2022-10-31T01:46:49.264Z,100350.56
2022-10-31T01:49:16.840Z,100350.56
2022-10-31T01:51:44.718Z,100347.00
2022-10-31T01:54:12.295Z,100356.75
2022-10-31T01:56:39.901Z,100357.31
2022-10-31T01:59:07.837Z,100366.94
2022-10-31T02:01:35.470Z,100373.00
2022-10-31T02:04:03.761Z,100383.28
2022-10-31T02:06:31.316Z,100384.75
2022-10-31T02:08:58.869Z,100383.63
2022-10-31T02:11:26.427Z,100373.72
2022-10-31T02:13:53.977Z,100368.94
2022-10-31T02:16:22.156Z,100362.47
2022-10-31T02:18:49.763Z,100355.88
2022-10-31T02:21:17.926Z,100354.59
2022-10-31T02:23:47.965Z,100354.47
2022-10-31T02:26:17.950Z,100343.16
2022-10-31T02:28:46.058Z,100343.56
2022-10-31T02:31:13.618Z,100336.09
2022-10-31T02:33:41.217Z,100338.47
2022-10-31T02:36:08.763Z,100337.31
2022-10-31T02:38:36.315Z,100337.28
2022-10-31T02:41:04.063Z,100334.69
2022-10-31T02:43:31.605Z,100325.88
2022-10-31T02:45:59.133Z,100334.28
2022-10-31T02:48:26.725Z,100331.69
2022-10-31T02:50:54.273Z,100323.75
2022-10-31T02:53:22.003Z,100328.06
2022-10-31T02:55:49.614Z,100332.34
2022-10-31T02:58:17.174Z,100330.47
2022-10-31T03:00:47.018Z,100333.66
2022-10-31T03:03:17.732Z,100340.53
2022-10-31T03:05:51.454Z,100330.22
2022-10-31T03:08:19.059Z,100332.44
2022-10-31T03:10:46.587Z,100331.00
2022-10-31T03:13:14.177Z,100327.88
2022-10-31T03:15:41.783Z,100346.00
2022-10-31T03:18:09.664Z,100350.59
2022-10-31T03:20:37.160Z,100355.25
2022-10-31T03:23:04.732Z,100365.06
2022-10-31T03:25:32.585Z,100363.53
2022-10-31T03:28:00.604Z,100373.63
2022-10-31T03:30:28.822Z,100374.84
2022-10-31T03:32:56.454Z,100373.25
2022-10-31T03:35:24.048Z,100368.97
2022-10-31T03:37:51.629Z,100375.47
2022-10-31T03:40:19.164Z,100381.91
2022-10-31T03:42:47.332Z,100372.31
2022-10-31T03:45:14.894Z,100365.25
2022-10-31T03:47:42.783Z,100368.06
2022-10-31T03:50:10.321Z,100376.06
2022-10-31T03:52:37.876Z,100368.91
2022-10-31T03:55:05.435Z,100374.09
2022-10-31T03:57:32.950Z,100361.34
2022-10-31T04:00:00.485Z,100375.19
2022-10-31T04:02:28.076Z,100373.84
2022-10-31T04:04:55.660Z,100371.56
2022-10-31T04:07:23.761Z,100369.31
2022-10-31T04:09:51.309Z,100367.41
2022-10-31T04:12:18.836Z,100365.91
2022-10-31T04:14:46.638Z,100369.88
2022-10-31T04:17:14.168Z,100368.63
2022-10-31T04:19:41.868Z,100363.03
2022-10-31T04:22:09.451Z,100353.91
2022-10-31T04:24:36.980Z,100353.78
2022-10-31T04:27:04.517Z,100342.94
2022-10-31T04:29:32.096Z,100342.69
2022-10-31T04:32:01.890Z,100345.75
2022-10-31T04:34:29.463Z,100344.56
2022-10-31T04:36:56.995Z,100350.41
2022-10-31T04:39:26.782Z,100357.41
2022-10-31T04:41:54.422Z,100348.47
2022-10-31T04:44:22.220Z,100342.16
2022-10-31T04:46:49.741Z,100344.59
2022-10-31T04:49:17.252Z,100341.59
2022-10-31T04:51:44.797Z,100335.75
2022-10-31T04:54:12.736Z,100336.03
2022-10-31T04:56:40.975Z,100336.13
2022-10-31T04:59:08.565Z,100326.53
2022-10-31T05:01:36.279Z,100325.94
2022-10-31T05:04:04.002Z,100333.25
2022-10-31T05:06:31.583Z,100329.88
2022-10-31T05:08:59.469Z,100329.97
2022-10-31T05:11:27.021Z,100333.63
2022-10-31T05:13:54.593Z,100325.00
2022-10-31T05:16:22.515Z,100320.75
2022-10-31T05:18:50.074Z,100322.72
2022-10-31T05:21:18.137Z,100319.34
2022-10-31T05:23:47.646Z,100323.09
2022-10-31T05:26:16.151Z,100324.19
2022-10-31T05:28:43.696Z,100318.38
2022-10-31T05:31:11.229Z,100326.75
2022-10-31T05:33:39.348Z,100324.19
2022-10-31T05:36:06.937Z,100327.00
2022-10-31T05:38:34.455Z,100326.25
2022-10-31T05:41:02.168Z,100311.22
2022-10-31T05:43:29.778Z,100304.19
2022-10-31T05:45:57.482Z,100315.13
2022-10-31T05:48:25.033Z,100314.38
2022-10-31T05:50:53.229Z,100314.38
2022-10-31T05:53:20.778Z,100301.03
2022-10-31T05:55:48.318Z,100306.50
2022-10-31T05:58:17.862Z,100308.31
2022-10-31T06:00:45.396Z,100301.16
2022-10-31T06:03:12.943Z,100309.19
2022-10-31T06:05:40.548Z,100301.28
2022-10-31T06:08:08.088Z,100304.94
2022-10-31T06:10:36.280Z,100308.56
2022-10-31T06:13:03.861Z,100315.88
2022-10-31T06:15:31.446Z,100306.28
2022-10-31T06:17:59.197Z,100304.59
2022-10-31T06:20:27.333Z,100306.38
2022-10-31T06:22:55.022Z,100311.00
2022-10-31T06:25:22.593Z,100304.09
2022-10-31T06:27:50.261Z,100305.19
2022-10-31T06:30:17.844Z,100307.84
2022-10-31T06:32:45.414Z,100307.13
2022-10-31T06:35:13.240Z,100301.78
2022-10-31T06:37:40.824Z,100298.41
2022-10-31T06:40:08.377Z,100308.09
2022-10-31T06:42:35.987Z,100303.38
2022-10-31T06:45:03.547Z,100302.28
2022-10-31T06:47:31.206Z,100304.59
2022-10-31T06:49:58.841Z,100309.56
2022-10-31T06:52:26.405Z,100311.25
2022-10-31T06:54:53.973Z,100304.94
2022-10-31T06:57:21.635Z,100308.56
2022-10-31T06:59:49.813Z,100306.72
2022-10-31T07:02:17.797Z,100313.66
2022-10-31T07:04:45.465Z,100310.75
2022-10-31T07:07:13.053Z,100322.75
2022-10-31T07:09:40.881Z,100313.41
2022-10-31T07:12:08.920Z,100317.28
2022-10-31T07:14:36.557Z,100323.81
2022-10-31T07:17:04.186Z,100316.28
2022-10-31T07:19:31.782Z,100320.50
2022-10-31T07:21:59.355Z,100321.09
2022-10-31T07:24:28.193Z,100316.34
2022-10-31T07:26:55.826Z,100309.91
2022-10-31T07:29:23.564Z,100315.84
2022-10-31T07:31:51.155Z,100312.81
2022-10-31T07:34:18.861Z,100321.31
2022-10-31T07:36:47.003Z,100319.09
2022-10-31T07:39:14.739Z,100317.75
2022-10-31T07:41:42.988Z,100329.75
2022-10-31T07:44:10.681Z,100322.94
2022-10-31T07:46:38.673Z,100318.78
2022-10-31T07:49:07.025Z,100315.34
2022-10-31T07:51:34.658Z,100321.88
2022-10-31T07:54:02.371Z,100316.00
2022-10-31T07:56:30.068Z,100318.16
2022-10-31T07:58:57.753Z,100320.16
2022-10-31T08:01:25.929Z,100318.66
2022-10-31T08:03:53.680Z,100312.81
2022-10-31T08:06:21.296Z,100310.44
2022-10-31T08:08:48.891Z,100312.47
2022-10-31T08:11:16.556Z,100307.53
2022-10-31T08:13:45.185Z,100310.66
2022-10-31T08:16:12.934Z,100302.94
2022-10-31T08:18:40.703Z,100298.91
2022-10-31T08:21:08.361Z,100303.00
2022-10-31T08:23:35.988Z,100299.91
2022-10-31T08:26:04.311Z,100293.19
2022-10-31T08:28:32.427Z,100291.78
2022-10-31T08:31:00.212Z,100295.66
2022-10-31T08:33:27.949Z,100285.66
2022-10-31T08:35:55.559Z,100297.91
2022-10-31T08:38:23.867Z,100296.81
2022-10-31T08:40:51.717Z,100289.91
2022-10-31T08:43:19.400Z,100302.75
2022-10-31T08:45:47.276Z,100301.22
2022-10-31T08:48:15.183Z,100297.00
2022-10-31T08:50:44.948Z,100291.38
2022-10-31T08:53:12.786Z,100288.13
2022-10-31T08:55:40.706Z,100290.00
2022-10-31T08:58:08.503Z,100286.72
2022-10-31T09:00:36.313Z,100292.22
2022-10-31T09:03:04.788Z,100291.69
2022-10-31T09:05:32.544Z,100295.34
2022-10-31T09:08:00.705Z,100291.25
2022-10-31T09:10:28.754Z,100284.19
2022-10-31T09:12:56.765Z,100286.47
2022-10-31T09:15:25.215Z,100296.63
2022-10-31T09:17:53.066Z,100291.66
2022-10-31T09:20:20.753Z,100287.44
2022-10-31T09:22:48.471Z,100278.94
2022-10-31T09:25:16.254Z,100279.50
2022-10-31T09:27:44.409Z,100279.81
2022-10-31T09:30:12.130Z,100281.06
2022-10-31T09:32:40.047Z,100281.16
2022-10-31T09:35:08.139Z,100279.59
2022-10-31T09:37:36.038Z,100277.84
2022-10-31T09:40:04.430Z,100273.44
2022-10-31T09:42:37.401Z,100275.25
2022-10-31T09:45:05.176Z,100275.06
2022-10-31T09:47:32.904Z,100264.81
2022-10-31T09:50:00.672Z,100272.13
2022-10-31T09:52:28.937Z,100256.69
2022-10-31T09:54:56.683Z,100252.25
2022-10-31T09:57:24.643Z,100242.59
2022-10-31T09:59:52.440Z,100238.00
2022-10-31T10:02:20.128Z,100244.66
2022-10-31T10:04:48.624Z,100240.94
2022-10-31T10:07:16.417Z,100241.72
2022-10-31T10:09:44.141Z,100237.38
2022-10-31T10:12:11.960Z,100228.59
2022-10-31T10:14:39.929Z,100232.47
2022-10-31T10:17:08.026Z,100227.94
2022-10-31T10:19:36.034Z,100225.91
2022-10-31T10:22:03.807Z,100222.91
2022-10-31T10:24:31.575Z,100217.31
2022-10-31T10:26:59.272Z,100209.53
2022-10-31T10:29:27.557Z,100218.81
2022-10-31T10:31:55.369Z,100219.84
2022-10-31T10:34:23.143Z,100213.75
2022-10-31T10:36:50.915Z,100219.13
2022-10-31T10:39:18.718Z,100210.38
2022-10-31T10:41:47.082Z,100214.72
2022-10-31T10:44:16.885Z,100215.91
2022-10-31T10:47:01.995Z,100208.66
2022-10-31T10:49:29.769Z,100205.13
2022-10-31T10:52:13.149Z,100200.41
2022-10-31T10:54:45.493Z,100198.19
2022-10-31T10:57:13.453Z,100188.13
2022-10-31T10:59:41.256Z,100180.69
2022-10-31T11:02:09.643Z,100173.28
2022-10-31T11:04:37.486Z,100170.06
2022-10-31T11:07:05.260Z,100156.00
2022-10-31T11:09:33.121Z,100158.13
2022-10-31T11:12:00.951Z,100152.16
2022-10-31T11:14:28.738Z,100153.31
2022-10-31T11:16:56.517Z,100143.16
2022-10-31T11:19:24.672Z,100143.16
2022-10-31T11:21:54.319Z,100132.53
2022-10-31T11:24:22.594Z,100128.31
2022-10-31T11:26:50.753Z,100128.13
2022-10-31T11:29:18.485Z,100126.94
2022-10-31T11:31:46.222Z,100124.09
2022-10-31T11:34:13.969Z,100117.66
2022-10-31T11:36:41.691Z,100119.66
2022-10-31T11:39:10.015Z,100117.25
2022-10-31T11:41:39.600Z,100101.66
2022-10-31T11:44:07.389Z,100100.50
2022-10-31T11:46:35.516Z,100091.56
2022-10-31T11:49:03.348Z,100098.66
2022-10-31T11:51:31.320Z,100094.44
2022-10-31T11:54:02.644Z,100091.38
2022-10-31T11:56:31.042Z,100087.88
2022-10-31T11:58:58.899Z,100084.78
2022-10-31T12:01:27.984Z,100074.16
2022-10-31T12:03:56.399Z,100069.50
2022-10-31T12:06:24.229Z,100063.69
2022-10-31T12:08:52.116Z,100064.94
2022-10-31T12:11:20.060Z,100056.03
2022-10-31T12:13:48.783Z,100049.44
2022-10-31T12:16:17.095Z,100055.19
2022-10-31T12:18:44.953Z,100045.03
2022-10-31T12:21:12.974Z,100042.81
2022-10-31T12:23:41.040Z,100039.22
2022-10-31T12:26:09.558Z,100041.28
2022-10-31T12:28:41.365Z,100038.25
2022-10-31T12:31:12.928Z,100028.00
2022-10-31T12:33:40.802Z,100018.91
2022-10-31T12:36:11.059Z,100015.59
2022-10-31T12:38:44.079Z,100014.00
2022-10-31T12:41:11.972Z,100011.38
2022-10-31T12:43:39.904Z,100003.69
2022-10-31T12:46:07.717Z,99997.03
2022-10-31T12:48:35.585Z,100000.41
2022-10-31T12:51:04.218Z,99993.94
2022-10-31T12:53:31.963Z,99992.91
2022-10-31T12:55:59.837Z,99985.78
2022-10-31T12:58:27.752Z,99980.09
2022-10-31T13:00:55.904Z,99984.25
2022-10-31T13:03:24.369Z,99977.53
2022-10-31T13:05:52.165Z,99973.13
2022-10-31T13:08:20.084Z,99970.41
2022-10-31T13:10:47.880Z,99964.53
2022-10-31T13:13:15.673Z,99956.41
2022-10-31T13:15:44.348Z,99961.19
2022-10-31T13:18:12.175Z,99951.38
2022-10-31T13:20:39.912Z,99947.81
2022-10-31T13:23:23.394Z,99939.03
2022-10-31T13:25:52.402Z,99933.81
2022-10-31T13:28:20.222Z,99929.41
2022-10-31T13:30:48.605Z,99934.84
2022-10-31T13:33:16.339Z,99916.31
2022-10-31T13:35:44.242Z,99917.97
2022-10-31T13:38:12.565Z,99920.06
2022-10-31T13:40:40.558Z,99913.72
2022-10-31T13:43:08.376Z,99914.50
2022-10-31T13:45:36.133Z,99915.22
2022-10-31T13:48:04.349Z,99917.69
2022-10-31T13:50:33.404Z,99908.84
2022-10-31T13:53:01.471Z,99907.75
2022-10-31T13:55:29.208Z,99899.09
2022-10-31T13:57:57.080Z,99887.72
2022-10-31T14:00:24.865Z,99882.81
2022-10-31T14:02:54.706Z,99880.78
2022-10-31T14:05:22.601Z,99876.69
2022-10-31T14:07:50.455Z,99877.78
2022-10-31T14:10:18.469Z,99870.78
2022-10-31T14:12:46.370Z,99854.00
2022-10-31T14:15:17.878Z,99848.50
2022-10-31T14:17:45.813Z,99852.13
2022-10-31T14:20:13.748Z,99845.78
2022-10-31T14:22:42.829Z,99843.47
2022-10-31T14:25:11.035Z,99846.53
2022-10-31T14:27:39.517Z,99836.56
2022-10-31T14:30:07.296Z,99834.13
2022-10-31T14:32:36.724Z,99828.25
2022-10-31T14:35:04.746Z,99828.59
2022-10-31T14:37:32.583Z,99830.63
2022-10-31T14:40:01.780Z,99831.69
2022-10-31T14:42:29.809Z,99835.78
2022-10-31T14:44:57.619Z,99829.09
2022-10-31T14:47:25.482Z,99820.75
2022-10-31T14:49:53.416Z,99833.69
2022-10-31T14:52:22.754Z,99827.09
2022-10-31T14:54:50.698Z,99823.84
2022-10-31T14:57:18.578Z,99822.66
2022-10-31T14:59:46.422Z,99818.72
2022-10-31T15:02:14.398Z,99810.47
2022-10-31T15:04:42.802Z,99804.84
2022-10-31T15:07:10.621Z,99804.63
2022-10-31T15:09:38.875Z,99803.38
2022-10-31T15:12:06.799Z,99796.59
2022-10-31T15:14:34.666Z,99801.22
2022-10-31T15:17:03.394Z,99798.59
2022-10-31T15:19:31.620Z,99789.53
2022-10-31T15:21:59.429Z,99784.22
2022-10-31T15:24:27.318Z,99784.28
2022-10-31T15:26:55.292Z,99771.50
2022-10-31T15:29:25.127Z,99757.03
2022-10-31T15:31:53.103Z,99769.41
2022-10-31T15:34:20.942Z,99770.09
2022-10-31T15:36:48.697Z,99764.59
2022-10-31T15:39:16.971Z,99752.81
2022-10-31T15:41:46.568Z,99758.09
2022-10-31T15:44:17.011Z,99752.41
2022-10-31T15:46:44.835Z,99753.28
2022-10-31T15:49:12.821Z,99747.41
2022-10-31T15:51:40.562Z,99744.41
2022-10-31T15:54:08.921Z,99745.13
2022-10-31T15:56:36.864Z,99748.38
2022-10-31T15:59:04.925Z,99740.97
2022-10-31T16:01:32.964Z,99744.03
2022-10-31T16:04:01.530Z,99738.97
2022-10-31T16:06:30.851Z,99730.59
2022-10-31T16:08:58.529Z,99734.50
2022-10-31T16:11:26.484Z,99726.94
2022-10-31T16:13:54.361Z,99720.84
2022-10-31T16:16:35.218Z,99730.13
2022-10-31T16:19:05.857Z,99728.94
2022-10-31T16:21:33.579Z,99724.94
2022-10-31T16:24:05.802Z,99712.97
2022-10-31T16:26:34.388Z,99721.78
2022-10-31T16:29:05.383Z,99718.13
2022-10-31T16:31:35.770Z,99706.53
2022-10-31T16:34:03.652Z,99706.19
2022-10-31T16:36:35.944Z,99709.91
2022-10-31T16:39:04.279Z,99699.13
2022-10-31T16:41:31.990Z,99702.19
2022-10-31T16:44:00.848Z,99702.72
2022-10-31T16:46:28.821Z,99695.47
2022-10-31T16:48:56.559Z,99701.72
2022-10-31T16:51:24.301Z,99687.22
2022-10-31T16:53:52.078Z,99697.84
2022-10-31T16:56:20.189Z,99685.19
2022-10-31T16:58:47.922Z,99679.66
2022-10-31T17:01:15.861Z,99677.81
2022-10-31T17:03:43.774Z,99676.25
2022-10-31T17:06:11.971Z,99662.44
2022-10-31T17:08:43.412Z,99675.72
2022-10-31T17:11:11.138Z,99667.16
2022-10-31T17:13:39.064Z,99666.78
2022-10-31T17:16:06.828Z,99668.47
2022-10-31T17:18:34.660Z,99669.31
2022-10-31T17:21:05.117Z,99680.59
2022-10-31T17:23:33.560Z,99677.72
2022-10-31T17:26:01.368Z,99678.22
2022-10-31T17:28:29.670Z,99674.84
2022-10-31T17:30:59.571Z,99679.25
2022-10-31T17:33:30.594Z,99671.97
2022-10-31T17:35:58.391Z,99664.06
2022-10-31T17:38:26.269Z,99667.25
2022-10-31T17:40:54.138Z,99653.44
2022-10-31T17:43:22.117Z,99653.59
2022-10-31T17:45:50.341Z,99651.94
2022-10-31T17:48:18.424Z,99644.66
2022-10-31T17:50:46.688Z,99641.81
2022-10-31T17:53:14.666Z,99652.59
2022-10-31T17:55:42.501Z,99649.06
2022-10-31T17:58:14.614Z,99640.97
2022-10-31T18:00:45.823Z,99652.59
2022-10-31T18:03:16.649Z,99641.16
2022-10-31T18:05:44.429Z,99643.19
2022-10-31T18:08:12.274Z,99639.81
2022-10-31T18:10:40.313Z,99638.13
2022-10-31T18:13:08.352Z,99636.28
2022-10-31T18:15:36.113Z,99635.91
2022-10-31T18:18:05.005Z,99643.00
2022-10-31T18:20:34.005Z,99637.78
2022-10-31T18:23:02.360Z,99643.19
2022-10-31T18:25:30.202Z,99644.22
2022-10-31T18:27:58.357Z,99641.84
2022-10-31T18:30:26.367Z,99641.03
2022-10-31T18:32:58.647Z,99634.13
2022-10-31T18:35:27.010Z,99636.13
2022-10-31T18:37:56.077Z,99634.47
2022-10-31T18:40:25.973Z,99631.47
2022-10-31T18:42:53.723Z,99630.00
2022-10-31T18:45:33.964Z,99624.97
2022-10-31T18:48:11.794Z,99624.38
2022-10-31T18:50:39.645Z,99631.47
2022-10-31T18:53:07.896Z,99628.16
2022-10-31T18:55:38.840Z,99632.72
2022-10-31T18:58:06.574Z,99628.19
2022-10-31T19:00:34.748Z,99636.09
2022-10-31T19:03:02.799Z,99634.72
2022-10-31T19:05:30.852Z,99634.72
2022-10-31T19:07:58.779Z,99628.19
2022-10-31T19:10:26.637Z,99622.50
2022-10-31T19:12:54.485Z,99624.16
2022-10-31T19:15:22.854Z,99619.09
2022-10-31T19:17:51.019Z,99620.13
2022-10-31T19:20:18.834Z,99625.66
2022-10-31T19:22:46.661Z,99619.28
2022-10-31T19:25:15.064Z,99614.59
2022-10-31T19:27:42.977Z,99614.75
2022-10-31T19:30:10.794Z,99616.09
2022-10-31T19:32:38.918Z,99610.53
2022-10-31T19:35:09.295Z,99605.00
2022-10-31T19:37:37.539Z,99607.34
2022-10-31T19:40:05.448Z,99598.78
2022-10-31T19:42:33.409Z,99588.22
2022-10-31T19:45:02.201Z,99594.09
2022-10-31T19:47:30.211Z,99591.41
2022-10-31T19:49:58.422Z,99595.59
2022-10-31T19:52:26.369Z,99598.75
2022-10-31T19:54:54.406Z,99590.72
2022-10-31T19:57:48.415Z,99588.03
2022-10-31T20:00:10.580Z,99580.97
2022-10-31T20:02:38.328Z,99586.31
2022-10-31T20:05:06.303Z,99583.94
2022-10-31T20:07:34.223Z,99579.03
2022-10-31T20:10:02.121Z,99576.69
2022-10-31T20:12:30.207Z,99575.16
2022-10-31T20:14:58.089Z,99566.03
2022-10-31T20:17:26.308Z,99575.75
2022-10-31T20:19:54.279Z,99567.88
2022-10-31T20:22:22.299Z,99570.03
2022-10-31T20:24:50.769Z,99565.97
2022-10-31T20:27:18.587Z,99558.22
2022-10-31T20:29:46.409Z,99561.56
2022-10-31T20:32:14.262Z,99560.75
2022-10-31T20:34:42.340Z,99562.59
2022-10-31T20:37:10.286Z,99561.56
2022-10-31T20:39:38.189Z,99565.13
2022-10-31T20:42:05.974Z,99554.84
2022-10-31T20:44:34.715Z,99550.09
2022-10-31T20:47:02.532Z,99553.81
2022-10-31T20:49:30.843Z,99548.91
2022-10-31T20:51:58.751Z,99539.00
2022-10-31T20:54:26.679Z,99537.13
2022-10-31T20:56:54.664Z,99530.56
2022-10-31T20:59:22.846Z,99530.72
2022-10-31T21:01:51.148Z,99530.56
2022-10-31T21:04:19.065Z,99527.19
2022-10-31T21:06:49.612Z,99521.13
2022-10-31T21:09:17.980Z,99526.50
2022-10-31T21:11:45.850Z,99524.03
2022-10-31T21:14:14.383Z,99518.63
2022-10-31T21:16:42.195Z,99522.47
2022-10-31T21:19:10.085Z,99523.81
2022-10-31T21:21:38.286Z,99518.41
2022-10-31T21:24:06.045Z,99517.19
2022-10-31T21:26:34.590Z,99515.00
2022-10-31T21:29:02.802Z,99515.19
2022-10-31T21:31:30.767Z,99514.34
2022-10-31T21:33:58.890Z,99506.25
2022-10-31T21:36:27.036Z,99501.53
2022-10-31T21:38:54.821Z,99506.91
2022-10-31T21:41:22.575Z,99494.94
2022-10-31T21:43:50.388Z,99498.50
2022-10-31T21:46:19.923Z,99500.81
2022-10-31T21:48:47.605Z,99488.19
2022-10-31T21:51:15.801Z,99493.38
2022-10-31T21:54:00.927Z,99494.88
2022-10-31T21:56:29.405Z,99483.28
2022-10-31T21:58:57.054Z,99481.63
2022-10-31T22:01:25.632Z,99475.22
2022-10-31T22:03:53.816Z,99476.34
2022-10-31T22:06:21.580Z,99466.59
2022-10-31T22:08:49.377Z,99457.31
2022-10-31T22:11:17.186Z,99457.47
2022-10-31T22:13:45.191Z,99464.72
2022-10-31T22:16:12.873Z,99456.28
2022-10-31T22:18:40.756Z,99449.31
2022-10-31T22:21:08.631Z,99453.53
2022-10-31T22:23:36.382Z,99432.78
2022-10-31T22:26:04.974Z,99441.34
2022-10-31T22:28:32.726Z,99434.09
2022-10-31T22:31:00.547Z,99432.91
2022-10-31T22:33:29.771Z,99433.56
2022-10-31T22:35:57.451Z,99425.47
2022-10-31T22:38:25.106Z,99430.50
2022-10-31T22:40:52.859Z,99436.34
2022-10-31T22:43:20.593Z,99420.66
2022-10-31T22:45:49.093Z,99419.63
2022-10-31T22:48:17.227Z,99421.97
2022-10-31T22:50:45.590Z,99421.81
2022-10-31T22:53:15.892Z,99425.31
2022-10-31T22:55:43.529Z,99418.91
2022-10-31T22:58:11.283Z,99412.50
2022-10-31T23:00:38.963Z,99415.88
2022-10-31T23:03:07.066Z,99411.31
2022-10-31T23:05:34.666Z,99413.84
2022-10-31T23:08:02.604Z,99415.50
2022-10-31T23:10:35.042Z,99411.78
2022-10-31T23:13:20.423Z,99410.97
2022-10-31T23:15:48.079Z,99404.56
2022-10-31T23:18:30.145Z,99415.97
2022-10-31T23:21:03.499Z,99409.84
2022-10-31T23:23:31.360Z,99403.72
2022-10-31T23:26:16.332Z,99400.25
2022-10-31T23:28:43.942Z,99405.94
2022-10-31T23:31:11.954Z,99394.78
2022-10-31T23:33:39.906Z,99395.69
2022-10-31T23:36:07.533Z,99398.88
2022-10-31T23:38:35.559Z,99390.22
2022-10-31T23:41:03.210Z,99390.03
2022-10-31T23:43:30.825Z,99386.69
2022-10-31T23:45:58.752Z,99385.47
2022-10-31T23:48:26.414Z,99386.69
2022-10-31T23:50:54.026Z,99386.69
2022-10-31T23:53:22.281Z,99395.59
2022-10-31T23:55:53.050Z,99393.28
2022-10-31T23:58:21.035Z,99390.78
